createdAt,value
2018-03-11T00:02:28.759Z,12.15
2018-03-11T00:04:59.724Z,12.15
2018-03-11T00:07:30.730Z,12.17
2018-03-11T00:10:01.725Z,12.19
2018-03-11T00:12:32.757Z,12.16
2018-03-11T00:15:03.781Z,12.13
2018-03-11T00:17:34.858Z,12.13
2018-03-11T00:20:05.841Z,12.10
2018-03-11T00:22:36.819Z,12.09
2018-03-11T00:25:07.815Z,12.11
2018-03-11T00:27:38.843Z,12.11
2018-03-11T00:30:09.844Z,12.07
2018-03-11T00:32:40.831Z,12.10
2018-03-11T00:35:11.819Z,12.13
2018-03-11T00:37:42.807Z,12.09
2018-03-11T00:40:13.855Z,12.06
2018-03-11T00:42:44.857Z,12.06
2018-03-11T00:45:15.799Z,12.08
2018-03-11T00:47:46.789Z,12.13
2018-03-11T00:50:17.769Z,12.16
2018-03-11T00:52:48.784Z,12.20
2018-03-11T00:55:19.768Z,12.22
2018-03-11T00:57:50.783Z,12.21
2018-03-11T01:00:21.748Z,12.25
2018-03-11T01:02:52.777Z,12.23
2018-03-11T01:05:23.803Z,12.23
2018-03-11T01:07:54.863Z,12.24
2018-03-11T01:10:25.823Z,12.20
2018-03-11T01:12:56.845Z,12.15
2018-03-11T01:15:27.842Z,12.10
2018-03-11T01:17:58.873Z,12.08
2018-03-11T01:20:29.877Z,12.10
2018-03-11T01:23:00.935Z,12.10
2018-03-11T01:25:31.912Z,12.05
2018-03-11T01:28:02.907Z,11.97
2018-03-11T01:30:33.908Z,11.98
2018-03-11T01:33:04.890Z,12.00
2018-03-11T01:35:35.907Z,12.02
2018-03-11T01:38:07.791Z,12.03
2018-03-11T01:40:38.784Z,12.02
2018-03-11T01:43:09.763Z,11.99
2018-03-11T01:45:40.758Z,11.93
2018-03-11T01:48:11.731Z,11.91
2018-03-11T01:50:42.705Z,11.86
2018-03-11T01:53:13.720Z,11.76
2018-03-11T01:55:44.710Z,11.59
2018-03-11T01:58:15.664Z,11.34
2018-03-11T02:00:46.686Z,11.11
2018-03-11T02:03:17.675Z,10.88
2018-03-11T02:05:48.644Z,10.70
2018-03-11T02:08:19.642Z,10.55
2018-03-11T02:10:50.599Z,10.40
2018-03-11T02:13:21.552Z,10.24
2018-03-11T02:15:52.504Z,10.14
2018-03-11T02:18:23.479Z,10.05
2018-03-11T02:20:54.471Z,9.96
2018-03-11T02:23:25.460Z,9.88
2018-03-11T02:25:56.453Z,9.83
2018-03-11T02:28:27.440Z,9.74
2018-03-11T02:30:58.459Z,9.67
2018-03-11T02:33:29.441Z,9.56
2018-03-11T02:36:00.425Z,9.48
2018-03-11T02:38:31.438Z,9.45
2018-03-11T02:41:02.419Z,9.40
2018-03-11T02:43:33.346Z,9.36
2018-03-11T02:46:04.406Z,9.28
2018-03-11T02:48:35.464Z,9.24
2018-03-11T02:51:06.477Z,9.22
2018-03-11T02:53:37.495Z,9.19
2018-03-11T02:56:08.481Z,9.18
2018-03-11T02:58:39.428Z,9.16
2018-03-11T03:01:10.375Z,9.14
2018-03-11T03:03:41.350Z,9.08
2018-03-11T03:06:12.320Z,9.06
2018-03-11T03:08:43.314Z,9.00
2018-03-11T03:11:14.321Z,8.96
2018-03-11T03:13:45.347Z,8.89
2018-03-11T03:16:16.316Z,8.89
2018-03-11T03:18:47.301Z,8.82
2018-03-11T03:21:18.306Z,8.72
2018-03-11T03:23:49.414Z,8.67
2018-03-11T03:26:20.399Z,8.67
2018-03-11T03:28:51.398Z,8.62
2018-03-11T03:31:22.402Z,8.60
2018-03-11T03:33:53.379Z,8.54
2018-03-11T03:36:24.420Z,8.50
2018-03-11T03:38:55.419Z,8.44
2018-03-11T03:41:26.454Z,8.39
2018-03-11T03:43:57.430Z,8.37
2018-03-11T03:46:28.451Z,8.39
2018-03-11T03:48:59.463Z,8.40
2018-03-11T03:51:30.461Z,8.42
2018-03-11T03:54:01.465Z,8.40
2018-03-11T03:56:32.479Z,8.40
2018-03-11T03:59:03.454Z,8.38
2018-03-11T04:01:34.455Z,8.35
2018-03-11T04:04:05.411Z,8.26
2018-03-11T04:06:36.388Z,8.24
2018-03-11T04:09:07.380Z,8.21
2018-03-11T04:11:38.341Z,8.19
2018-03-11T04:14:09.337Z,8.17
2018-03-11T04:16:40.324Z,8.16
2018-03-11T04:19:11.303Z,8.12
2018-03-11T04:21:42.310Z,8.05
2018-03-11T04:24:13.278Z,7.96
2018-03-11T04:26:44.310Z,7.94
2018-03-11T04:29:15.292Z,7.96
2018-03-11T04:31:46.328Z,7.92
2018-03-11T04:34:17.315Z,7.91
2018-03-11T04:36:48.346Z,7.90
2018-03-11T04:39:19.404Z,7.87
2018-03-11T04:41:50.377Z,7.85
2018-03-11T04:44:21.403Z,7.82
2018-03-11T04:46:52.383Z,7.80
2018-03-11T04:49:23.418Z,7.82
2018-03-11T04:51:54.457Z,7.83
2018-03-11T04:54:25.433Z,7.87
2018-03-11T04:56:56.498Z,7.88
2018-03-11T04:59:27.513Z,7.83
2018-03-11T05:01:58.498Z,7.85
2018-03-11T05:04:29.531Z,7.82
2018-03-11T05:07:00.527Z,7.76
2018-03-11T05:09:31.498Z,7.72
2018-03-11T05:12:02.517Z,7.67
2018-03-11T05:14:33.544Z,7.65
2018-03-11T05:17:04.504Z,7.66
2018-03-11T05:19:35.499Z,7.67
2018-03-11T05:22:06.492Z,7.63
2018-03-11T05:24:37.529Z,7.64
2018-03-11T05:27:08.553Z,7.80
2018-03-11T05:29:39.555Z,7.95
2018-03-11T05:32:10.520Z,8.15
2018-03-11T05:34:41.517Z,8.32
2018-03-11T05:37:12.575Z,8.46
2018-03-11T05:39:43.601Z,8.51
2018-03-11T05:42:14.612Z,8.60
2018-03-11T05:44:45.590Z,8.70
2018-03-11T05:47:16.619Z,8.70
2018-03-11T05:49:47.580Z,8.66
2018-03-11T05:52:18.555Z,8.64
2018-03-11T05:54:49.549Z,8.54
2018-03-11T05:57:20.579Z,8.49
2018-03-11T05:59:51.549Z,8.40
2018-03-11T06:02:22.530Z,8.29
2018-03-11T06:04:53.503Z,8.33
2018-03-11T06:07:24.481Z,8.27
2018-03-11T06:09:55.506Z,8.14
2018-03-11T06:12:26.452Z,8.15
2018-03-11T06:14:57.468Z,8.17
2018-03-11T06:17:28.438Z,8.16
2018-03-11T06:19:59.404Z,8.12
2018-03-11T06:22:30.397Z,8.15
2018-03-11T06:25:01.414Z,8.24
2018-03-11T06:27:32.413Z,8.34
2018-03-11T06:30:03.445Z,8.42
2018-03-11T06:32:34.434Z,8.47
2018-03-11T06:35:05.452Z,8.52
2018-03-11T06:37:36.473Z,8.57
2018-03-11T06:40:07.521Z,8.57
2018-03-11T06:42:38.529Z,8.60
2018-03-11T06:45:09.493Z,8.75
2018-03-11T06:47:40.461Z,8.86
2018-03-11T06:50:11.401Z,8.88
2018-03-11T06:52:42.408Z,8.98
2018-03-11T06:55:13.400Z,9.07
2018-03-11T06:57:44.427Z,9.10
2018-03-11T07:00:15.415Z,9.18
2018-03-11T07:02:46.379Z,9.41
2018-03-11T07:05:17.367Z,9.59
2018-03-11T07:07:48.393Z,9.78
2018-03-11T07:10:19.415Z,9.93
2018-03-11T07:12:50.465Z,10.03
2018-03-11T07:15:21.494Z,10.34
2018-03-11T07:17:52.517Z,10.63
2018-03-11T07:20:23.559Z,10.88
2018-03-11T07:22:54.525Z,11.16
2018-03-11T07:25:25.530Z,11.33
2018-03-11T07:28:03.418Z,11.62
2018-03-11T07:30:34.455Z,11.90
2018-03-11T07:33:05.448Z,12.26
2018-03-11T07:35:36.464Z,12.67
2018-03-11T07:38:07.532Z,12.91
2018-03-11T07:40:38.522Z,13.24
2018-03-11T07:43:09.531Z,13.50
2018-03-11T07:45:40.535Z,13.58
2018-03-11T07:48:11.516Z,13.69
2018-03-11T07:50:42.514Z,14.16
2018-03-11T07:53:13.488Z,15.30
2018-03-11T07:55:44.473Z,16.02
2018-03-11T07:58:15.463Z,15.95
2018-03-11T08:00:46.460Z,16.21
2018-03-11T08:03:17.489Z,16.49
2018-03-11T08:05:48.473Z,16.34
2018-03-11T08:08:19.487Z,16.10
2018-03-11T08:10:50.477Z,15.92
2018-03-11T08:13:21.474Z,16.06
2018-03-11T08:15:52.450Z,16.30
2018-03-11T08:18:23.486Z,16.69
2018-03-11T08:20:54.488Z,17.01
2018-03-11T08:23:25.436Z,17.11
2018-03-11T08:25:56.453Z,17.30
2018-03-11T08:28:27.439Z,17.37
2018-03-11T08:30:58.408Z,17.73
2018-03-11T08:33:29.390Z,18.51
2018-03-11T08:36:00.399Z,19.10
2018-03-11T08:38:31.416Z,19.03
2018-03-11T08:41:02.441Z,19.58
2018-03-11T08:43:33.423Z,20.56
2018-03-11T08:46:04.391Z,21.37
2018-03-11T08:48:35.362Z,21.64
2018-03-11T08:51:06.311Z,21.52
2018-03-11T08:53:37.421Z,22.17
2018-03-11T08:56:08.408Z,22.88
2018-03-11T08:58:39.402Z,22.92
2018-03-11T09:01:10.373Z,22.87
2018-03-11T09:03:41.414Z,22.89
2018-03-11T09:06:12.416Z,22.72
2018-03-11T09:08:43.416Z,22.49
2018-03-11T09:11:14.409Z,21.92
2018-03-11T09:13:45.396Z,22.03
2018-03-11T09:16:16.366Z,21.77
2018-03-11T09:18:47.406Z,21.97
2018-03-11T09:21:18.354Z,22.22
2018-03-11T09:23:49.372Z,22.63
2018-03-11T09:26:20.364Z,22.89
2018-03-11T09:28:51.435Z,22.65
2018-03-11T09:31:22.455Z,22.42
2018-03-11T09:33:53.428Z,21.86
2018-03-11T09:36:24.467Z,21.94
2018-03-11T09:38:55.552Z,22.15
2018-03-11T09:41:26.531Z,21.93
2018-03-11T09:43:57.500Z,21.64
2018-03-11T09:46:28.542Z,22.61
2018-03-11T09:48:59.610Z,22.60
2018-03-11T09:51:30.642Z,21.92
2018-03-11T09:54:01.665Z,21.62
2018-03-11T09:56:32.691Z,21.59
2018-03-11T09:59:03.734Z,21.47
2018-03-11T10:01:34.706Z,21.64
2018-03-11T10:04:05.729Z,22.98
2018-03-11T10:06:36.751Z,23.22
2018-03-11T10:09:07.713Z,23.32
2018-03-11T10:11:38.745Z,23.64
2018-03-11T10:14:09.748Z,23.67
2018-03-11T10:16:40.699Z,23.29
2018-03-11T10:19:11.712Z,22.54
2018-03-11T10:21:42.726Z,22.36
2018-03-11T10:24:13.682Z,22.91
2018-03-11T10:26:44.683Z,23.26
2018-03-11T10:29:15.682Z,22.72
2018-03-11T10:31:46.703Z,21.97
2018-03-11T10:34:17.687Z,21.40
2018-03-11T10:36:48.726Z,20.93
2018-03-11T10:39:19.773Z,20.40
2018-03-11T10:41:50.761Z,20.24
2018-03-11T10:44:21.719Z,20.46
2018-03-11T10:46:52.742Z,21.00
2018-03-11T10:49:23.732Z,21.11
2018-03-11T10:51:55.411Z,21.98
2018-03-11T10:54:26.395Z,23.40
2018-03-11T10:56:57.376Z,24.51
2018-03-11T10:59:28.377Z,24.00
2018-03-11T11:05:06.266Z,21.87
2018-03-11T11:07:44.266Z,21.53
2018-03-11T11:10:15.312Z,21.47
2018-03-11T11:12:46.321Z,21.48
2018-03-11T11:15:17.335Z,21.32
2018-03-11T11:17:48.391Z,21.37
2018-03-11T11:20:19.376Z,21.56
2018-03-11T11:22:50.395Z,21.54
2018-03-11T11:25:21.335Z,21.44
2018-03-11T11:27:52.371Z,21.33
2018-03-11T11:30:23.383Z,21.19
2018-03-11T11:32:54.368Z,21.05
2018-03-11T11:35:25.389Z,20.74
2018-03-11T11:37:56.668Z,20.54
2018-03-11T11:40:27.686Z,20.47
2018-03-11T11:42:58.689Z,20.22
2018-03-11T11:45:29.713Z,20.21
2018-03-11T11:48:00.751Z,20.39
2018-03-11T11:50:31.848Z,20.78
2018-03-11T11:53:02.825Z,21.06
2018-03-11T11:55:33.945Z,20.97
2018-03-11T11:58:04.981Z,20.66
2018-03-11T12:00:35.987Z,20.33
2018-03-11T12:03:07.000Z,20.09
2018-03-11T12:05:37.994Z,19.76
2018-03-11T12:08:08.988Z,19.65
2018-03-11T12:10:39.967Z,19.61
2018-03-11T12:13:10.983Z,19.53
2018-03-11T12:15:41.975Z,19.61
2018-03-11T12:18:12.972Z,19.76
2018-03-11T12:20:44.005Z,19.78
2018-03-11T12:23:15.004Z,19.87
2018-03-11T12:25:46.025Z,19.98
2018-03-11T12:28:17.023Z,20.06
2018-03-11T12:30:48.040Z,20.05
2018-03-11T12:33:18.999Z,20.13
2018-03-11T12:35:49.972Z,20.10
2018-03-11T12:38:20.998Z,20.15
2018-03-11T12:40:52.063Z,20.09
2018-03-11T12:43:23.060Z,20.23
2018-03-11T12:45:54.096Z,20.47
2018-03-11T12:48:25.097Z,20.79
2018-03-11T12:50:56.132Z,20.75
2018-03-11T12:53:27.110Z,20.56
2018-03-11T12:55:58.095Z,20.75
2018-03-11T12:58:29.036Z,20.87
2018-03-11T13:01:00.018Z,20.95
2018-03-11T13:03:30.965Z,20.76
2018-03-11T13:06:01.956Z,20.46
2018-03-11T13:08:32.927Z,20.67
2018-03-11T13:11:03.888Z,20.90
2018-03-11T13:13:34.826Z,20.76
2018-03-11T13:16:05.809Z,20.38
2018-03-11T13:18:36.743Z,20.19
2018-03-11T13:21:09.599Z,20.08
2018-03-11T13:23:40.588Z,20.15
2018-03-11T13:26:11.558Z,19.97
2018-03-11T13:28:47.379Z,19.62
2018-03-11T13:31:18.303Z,19.07
2018-03-11T13:34:01.742Z,18.74
2018-03-11T13:36:32.660Z,18.65
2018-03-11T13:39:15.922Z,18.56
2018-03-11T13:41:46.902Z,18.52
2018-03-11T13:44:17.865Z,18.84
2018-03-11T13:47:01.057Z,19.14
2018-03-11T13:49:38.990Z,19.43
2018-03-11T13:52:22.428Z,19.64
2018-03-11T13:54:53.407Z,19.77
2018-03-11T14:00:36.688Z,19.91
2018-03-11T14:03:07.722Z,19.70
2018-03-11T14:05:38.705Z,19.67
2018-03-11T14:08:09.733Z,19.70
2018-03-11T14:10:40.727Z,19.48
2018-03-11T14:13:11.735Z,19.33
2018-03-11T14:15:42.710Z,19.22
2018-03-11T14:18:13.719Z,18.99
2018-03-11T14:20:44.720Z,18.95
2018-03-11T14:23:15.717Z,19.05
2018-03-11T14:25:46.726Z,19.24
2018-03-11T14:28:17.751Z,19.38
2018-03-11T14:30:48.751Z,19.25
2018-03-11T14:33:19.731Z,19.00
2018-03-11T14:35:50.773Z,18.59
2018-03-11T14:38:21.746Z,18.42
2018-03-11T14:40:52.825Z,18.50
2018-03-11T14:43:23.801Z,18.49
2018-03-11T14:46:01.722Z,18.43
2018-03-11T14:48:32.755Z,18.13
2018-03-11T14:51:03.749Z,18.06
2018-03-11T14:53:34.729Z,17.99
2018-03-11T14:56:05.693Z,17.87
2018-03-11T14:58:36.740Z,17.63
2018-03-11T15:01:07.720Z,17.58
2018-03-11T15:03:38.729Z,17.44
2018-03-11T15:06:09.741Z,17.42
2018-03-11T15:08:40.794Z,17.32
2018-03-11T15:11:11.806Z,17.27
2018-03-11T15:13:42.813Z,17.22
2018-03-11T15:16:13.824Z,17.05
2018-03-11T15:18:44.811Z,16.82
2018-03-11T15:21:15.857Z,16.64
2018-03-11T15:23:46.800Z,16.55
2018-03-11T15:26:17.830Z,16.60
2018-03-11T15:28:48.793Z,16.73
2018-03-11T15:31:19.824Z,16.81
2018-03-11T15:33:50.834Z,16.86
2018-03-11T15:36:21.831Z,16.94
2018-03-11T15:38:52.829Z,16.97
2018-03-11T15:41:23.818Z,17.04
2018-03-11T15:43:54.803Z,17.18
2018-03-11T15:46:25.798Z,17.23
2018-03-11T15:48:56.799Z,17.33
2018-03-11T15:51:27.802Z,17.47
2018-03-11T15:53:58.821Z,17.44
2018-03-11T15:56:29.840Z,17.27
2018-03-11T15:59:00.822Z,17.03
2018-03-11T16:01:31.802Z,16.89
2018-03-11T16:04:02.821Z,16.87
2018-03-11T16:06:33.835Z,16.67
2018-03-11T16:09:04.849Z,16.66
2018-03-11T16:11:35.816Z,16.64
2018-03-11T16:14:06.810Z,16.58
2018-03-11T16:16:37.814Z,16.48
2018-03-11T16:19:08.813Z,16.58
2018-03-11T16:21:39.822Z,16.69
2018-03-11T16:24:10.865Z,16.70
2018-03-11T16:26:41.891Z,16.60
2018-03-11T16:29:12.881Z,16.50
2018-03-11T16:31:43.856Z,16.41
2018-03-11T16:34:14.865Z,16.29
2018-03-11T16:36:45.831Z,16.30
2018-03-11T16:39:16.857Z,16.26
2018-03-11T16:41:47.841Z,16.22
2018-03-11T16:44:18.848Z,16.08
2018-03-11T16:46:50.908Z,15.98
2018-03-11T16:49:21.879Z,15.94
2018-03-11T16:51:52.893Z,15.93
2018-03-11T16:54:23.936Z,15.91
2018-03-11T16:56:54.865Z,15.85
2018-03-11T16:59:25.841Z,15.78
2018-03-11T17:01:57.612Z,15.70
2018-03-11T17:04:28.643Z,15.59
2018-03-11T17:06:59.650Z,15.46
2018-03-11T17:09:30.595Z,15.34
2018-03-11T17:12:01.608Z,15.27
2018-03-11T17:14:32.551Z,15.18
2018-03-11T17:17:03.613Z,15.06
2018-03-11T17:19:34.586Z,14.98
2018-03-11T17:22:05.646Z,14.92
2018-03-11T17:24:36.613Z,14.83
2018-03-11T17:27:07.667Z,14.77
2018-03-11T17:29:38.638Z,14.71
2018-03-11T17:32:09.682Z,14.62
2018-03-11T17:34:40.669Z,14.55
2018-03-11T17:37:11.675Z,14.54
2018-03-11T17:39:42.734Z,14.52
2018-03-11T17:42:13.730Z,14.50
2018-03-11T17:44:44.711Z,14.52
2018-03-11T17:47:15.779Z,14.51
2018-03-11T17:49:46.793Z,14.46
2018-03-11T17:52:17.779Z,14.41
2018-03-11T17:54:48.801Z,14.38
2018-03-11T17:57:19.859Z,14.41
2018-03-11T17:59:50.840Z,14.41
2018-03-11T18:02:21.861Z,14.39
2018-03-11T18:04:52.898Z,14.36
2018-03-11T18:07:23.894Z,14.36
2018-03-11T18:09:54.914Z,14.40
2018-03-11T18:12:25.946Z,14.44
2018-03-11T18:14:56.960Z,14.50
2018-03-11T18:17:27.942Z,14.58
2018-03-11T18:19:58.960Z,14.60
2018-03-11T18:22:29.959Z,14.62
2018-03-11T18:25:00.978Z,14.64
2018-03-11T18:27:31.971Z,14.64
2018-03-11T18:30:03.030Z,14.59
2018-03-11T18:32:34.017Z,14.51
2018-03-11T18:35:05.032Z,14.46
2018-03-11T18:37:36.055Z,14.51
2018-03-11T18:40:07.061Z,14.56
2018-03-11T18:42:38.111Z,14.54
2018-03-11T18:45:09.087Z,14.49
2018-03-11T18:47:40.131Z,14.45
2018-03-11T18:50:11.106Z,14.43
2018-03-11T18:52:42.075Z,14.38
2018-03-11T18:55:13.093Z,14.38
2018-03-11T18:57:44.073Z,14.38
2018-03-11T19:00:15.067Z,14.40
2018-03-11T19:02:46.072Z,14.46
2018-03-11T19:05:17.037Z,14.51
2018-03-11T19:07:48.100Z,14.53
2018-03-11T19:10:19.219Z,14.56
2018-03-11T19:12:50.243Z,14.63
2018-03-11T19:15:21.242Z,14.69
2018-03-11T19:17:52.201Z,14.73
2018-03-11T19:20:23.192Z,14.73
2018-03-11T19:22:54.183Z,14.72
2018-03-11T19:25:25.188Z,14.74
2018-03-11T19:27:56.219Z,14.75
2018-03-11T19:30:27.197Z,14.74
2018-03-11T19:32:58.204Z,14.69
2018-03-11T19:35:29.255Z,14.68
2018-03-11T19:38:00.221Z,14.66
2018-03-11T19:40:31.200Z,14.62
2018-03-11T19:43:02.241Z,14.58
2018-03-11T19:45:33.304Z,14.53
2018-03-11T19:48:04.345Z,14.46
2018-03-11T19:50:35.314Z,14.38
2018-03-11T19:53:06.374Z,14.37
2018-03-11T19:55:37.408Z,14.43
2018-03-11T19:58:08.441Z,14.43
2018-03-11T20:00:39.414Z,14.39
2018-03-11T20:03:10.425Z,14.38
2018-03-11T20:05:41.506Z,14.40
2018-03-11T20:08:12.504Z,14.42
2018-03-11T20:10:43.517Z,14.39
2018-03-11T20:13:14.500Z,14.33
2018-03-11T20:15:45.532Z,14.22
2018-03-11T20:18:16.513Z,14.09
2018-03-11T20:20:47.500Z,13.94
2018-03-11T20:23:18.487Z,13.83
2018-03-11T20:25:49.533Z,13.78
2018-03-11T20:28:20.533Z,13.65
2018-03-11T20:30:51.506Z,13.46
2018-03-11T20:33:22.506Z,13.38
2018-03-11T20:35:53.509Z,13.36
2018-03-11T20:38:24.491Z,13.40
2018-03-11T20:40:55.469Z,13.44
2018-03-11T20:43:26.500Z,13.32
2018-03-11T20:45:57.524Z,13.17
2018-03-11T20:48:28.517Z,13.08
2018-03-11T20:50:59.532Z,13.06
2018-03-11T20:53:30.570Z,13.04
2018-03-11T20:56:01.600Z,13.01
2018-03-11T20:58:32.634Z,12.95
2018-03-11T21:01:03.679Z,12.86
2018-03-11T21:03:34.685Z,12.78
2018-03-11T21:06:05.764Z,12.69
2018-03-11T21:08:36.795Z,12.62
2018-03-11T21:11:07.859Z,12.56
2018-03-11T21:13:38.842Z,12.48
2018-03-11T21:16:09.831Z,12.42
2018-03-11T21:18:40.813Z,12.34
2018-03-11T21:21:11.837Z,12.28
2018-03-11T21:23:42.807Z,12.23
2018-03-11T21:26:13.834Z,12.19
2018-03-11T21:28:44.848Z,12.17
2018-03-11T21:31:15.874Z,12.15
2018-03-11T21:33:46.855Z,12.13
2018-03-11T21:36:17.834Z,12.12
2018-03-11T21:38:48.795Z,12.09
2018-03-11T21:41:19.778Z,12.01
2018-03-11T21:43:50.805Z,11.96
2018-03-11T21:46:21.863Z,11.95
2018-03-11T21:48:52.879Z,11.95
2018-03-11T21:51:23.890Z,11.96
2018-03-11T21:53:54.851Z,11.96
2018-03-11T21:56:25.840Z,11.96
2018-03-11T21:58:56.781Z,11.96
2018-03-11T22:01:27.746Z,11.98
2018-03-11T22:03:58.812Z,11.98
2018-03-11T22:06:29.763Z,12.00
2018-03-11T22:09:00.789Z,11.99
2018-03-11T22:11:31.768Z,12.00
2018-03-11T22:14:02.773Z,12.01
2018-03-11T22:16:33.756Z,12.03
2018-03-11T22:19:04.718Z,12.07
2018-03-11T22:21:35.692Z,12.08
2018-03-11T22:24:06.682Z,12.06
2018-03-11T22:26:37.603Z,12.04
2018-03-11T22:29:08.643Z,12.08
2018-03-11T22:31:39.687Z,12.12
2018-03-11T22:34:10.650Z,12.10
2018-03-11T22:36:41.648Z,12.08
2018-03-11T22:39:12.649Z,12.08
2018-03-11T22:41:43.690Z,12.09
2018-03-11T22:44:14.661Z,12.08
2018-03-11T22:46:45.658Z,12.04
2018-03-11T22:49:16.670Z,12.00
2018-03-11T22:51:47.664Z,12.02
2018-03-11T22:54:18.650Z,12.09
2018-03-11T22:56:49.594Z,12.17
2018-03-11T22:59:20.611Z,12.21
2018-03-11T23:01:52.116Z,12.21
2018-03-11T23:04:23.132Z,12.17
2018-03-11T23:06:54.168Z,12.17
2018-03-11T23:09:25.182Z,12.20
2018-03-11T23:11:56.175Z,12.25
2018-03-11T23:14:27.194Z,12.33
2018-03-11T23:16:58.193Z,12.34
2018-03-11T23:19:29.156Z,12.32
2018-03-11T23:22:00.129Z,12.35
2018-03-11T23:24:31.152Z,12.40
2018-03-11T23:27:02.144Z,12.46
2018-03-11T23:29:33.146Z,12.50
2018-03-11T23:32:04.110Z,12.50
2018-03-11T23:34:35.103Z,12.53
2018-03-11T23:37:06.060Z,12.44
2018-03-11T23:39:37.092Z,12.38
2018-03-11T23:42:08.059Z,12.33
2018-03-11T23:44:39.050Z,12.30
2018-03-11T23:47:10.054Z,12.26
2018-03-11T23:49:41.062Z,12.23
2018-03-11T23:52:12.056Z,12.22
2018-03-11T23:54:43.011Z,12.23
2018-03-11T23:57:13.986Z,12.19
2018-03-11T23:59:44.980Z,12.17
